CheckWX is a tool to help pilots better visualize weather data.  It is not intended as a substitute for an official pre-flight weather briefing.

10:10:26 UTC

WIDD TAF
Hang Nadim International Airport
Batam Island, Indonesia
TAF WIDD 260500Z 2606/2706 27010KT 5000 RA BKN012 BECMG 2606/2608 18008KT 9999 NSW SCT014

Jun-26@
06:00 UTC

Jun-26 @ 06:00 UTC

Jun-27@
06:00 UTC

Jun-27 @ 06:00 UTC

TAF WIDD 260500Z 2606/2706 27010KT 5000 RA BKN012
Wind
  • 270° at 10 KTS
Conditions
Rain
Cloud Levels
  • Broken at 1,200' AGL

Jun-26@
06:00 UTC

Jun-26 @ 06:00 UTC

Jun-27@
06:00 UTC

Jun-27 @ 06:00 UTC

BECMG 2606/2608 18008KT 9999 NSW SCT014

Becoming

Becoming Conditions expected by Wed, Jun 26, 2019 @ 08:00 UTC

Wind
  • 180° at 8 KTS
Conditions
No significant weather
Cloud Levels
  • Scattered at 1,400' AGL